Time;durP1;ratioP1;P1;durP2;ratioP2;P2;SDS_P1;SDS_P2;PMS_P1;PMS_P2;Temp;Humidity;BMP_temperature;BMP_pressure;BME280_temperature;BME280_humidity;BME280_pressure;Samples;Min_cycle;Max_cycle;Signal;HPM_P1;HPM_P2
2023/08/26 00:00:14;;;;;;;4.70;4.07;;;;;;;;;;4945334;29;20057;-75
2023/08/26 00:02:41;;;;;;;3.97;3.67;;;;;;;;;;4942588;29;20071;-77
2023/08/26 00:05:08;;;;;;;5.10;4.60;;;;;;;;;;4939798;29;20497;-75
2023/08/26 00:07:46;;;;;;;6.13;4.78;;;;;;;;;;4943998;29;20058;-77
2023/08/26 00:10:14;;;;;;;4.93;4.53;;;;;;;;;;4929812;29;20058;-77
2023/08/26 00:12:41;;;;;;;5.20;4.70;;;;;;;;;;4944156;29;20078;-77
2023/08/26 00:15:09;;;;;;;6.95;4.63;;;;;;;;;;4940245;29;20047;-77
2023/08/26 00:17:36;;;;;;;5.85;4.80;;;;;;;;;;4940136;29;20580;-77
2023/08/26 00:20:08;;;;;;;7.18;4.75;;;;;;;;;;4944912;29;20055;-77
2023/08/26 00:22:36;;;;;;;5.13;4.45;;;;;;;;;;4945468;29;20145;-77
2023/08/26 00:25:04;;;;;;;5.22;4.72;;;;;;;;;;4947621;29;20648;-77
2023/08/26 00:27:31;;;;;;;5.45;4.93;;;;;;;;;;4945284;29;20058;-76
2023/08/26 00:29:59;;;;;;;4.55;4.25;;;;;;;;;;4946636;29;20497;-77
2023/08/26 00:32:27;;;;;;;4.60;4.20;;;;;;;;;;4947712;28;20118;-77
2023/08/26 00:34:54;;;;;;;5.25;4.13;;;;;;;;;;4947551;29;20047;-77
2023/08/26 00:37:22;;;;;;;4.82;4.40;;;;;;;;;;4944721;28;20366;-77
2023/08/26 00:39:49;;;;;;;10.13;4.85;;;;;;;;;;4948106;29;20129;-77
2023/08/26 00:42:17;;;;;;;6.85;4.70;;;;;;;;;;4945445;29;20062;-77
2023/08/26 00:44:44;;;;;;;13.68;5.15;;;;;;;;;;4945068;29;20575;-77
2023/08/26 00:47:11;;;;;;;7.30;5.63;;;;;;;;;;4947455;28;20054;-77
2023/08/26 00:49:39;;;;;;;7.32;5.15;;;;;;;;;;4939512;29;20055;-77
2023/08/26 00:52:06;;;;;;;10.85;5.63;;;;;;;;;;4939245;29;20317;-77
2023/08/26 00:54:35;;;;;;;6.88;4.93;;;;;;;;;;4994260;23;20047;-78
2023/08/26 00:57:04;;;;;;;7.63;5.60;;;;;;;;;;4933466;28;20056;-78
2023/08/26 00:59:32;;;;;;;7.60;5.80;;;;;;;;;;4943590;28;20047;-78
2023/08/26 01:02:01;;;;;;;7.43;5.30;;;;;;;;;;4929043;29;20059;-80
2023/08/26 01:04:29;;;;;;;5.88;5.18;;;;;;;;;;4929942;29;20047;-80
2023/08/26 01:06:56;;;;;;;10.07;6.45;;;;;;;;;;4945621;28;20055;-80
2023/08/26 01:09:24;;;;;;;7.10;6.40;;;;;;;;;;4940825;29;20047;-80
2023/08/26 01:12:03;;;;;;;6.97;5.95;;;;;;;;;;4938419;29;20545;-79
2023/08/26 01:14:39;;;;;;;11.45;5.13;;;;;;;;;;4953103;28;20139;-81
2023/08/26 01:17:08;;;;;;;9.65;6.00;;;;;;;;;;4934629;29;20074;-80
2023/08/26 01:19:39;;;;;;;7.10;5.63;;;;;;;;;;4933935;29;20258;-80
2023/08/26 01:22:08;;;;;;;16.27;6.80;;;;;;;;;;4931314;29;20060;-81
2023/08/26 01:24:36;;;;;;;10.95;7.65;;;;;;;;;;4930537;29;20079;-80
2023/08/26 01:27:04;;;;;;;9.95;7.25;;;;;;;;;;4934153;28;20062;-80
2023/08/26 01:29:32;;;;;;;9.10;7.53;;;;;;;;;;4937109;29;20557;-79
2023/08/26 01:32:09;;;;;;;9.00;7.65;;;;;;;;;;4931643;29;20051;-79
2023/08/26 01:34:38;;;;;;;10.95;7.82;;;;;;;;;;4929683;29;20044;-79
2023/08/26 01:37:07;;;;;;;9.32;6.75;;;;;;;;;;4924581;29;20099;-81
2023/08/26 01:39:35;;;;;;;6.13;4.78;;;;;;;;;;4931464;29;20541;-79
2023/08/26 01:42:03;;;;;;;6.97;6.20;;;;;;;;;;4931002;29;20055;-79
2023/08/26 01:44:31;;;;;;;10.15;8.27;;;;;;;;;;4947046;28;20047;-79
2023/08/26 01:46:58;;;;;;;8.05;6.90;;;;;;;;;;4929397;29;20220;-80
2023/08/26 01:49:26;;;;;;;11.20;8.38;;;;;;;;;;4934317;29;20047;-79
2023/08/26 01:51:54;;;;;;;13.88;8.85;;;;;;;;;;4926975;29;20082;-80
2023/08/26 01:54:21;;;;;;;14.98;8.93;;;;;;;;;;4937455;29;20062;-77
2023/08/26 01:56:48;;;;;;;9.57;8.50;;;;;;;;;;4933317;28;20083;-80
2023/08/26 01:59:16;;;;;;;14.45;8.02;;;;;;;;;;4933519;29;20071;-79
2023/08/26 02:01:44;;;;;;;11.65;8.02;;;;;;;;;;4932237;29;20054;-80
2023/08/26 02:04:12;;;;;;;10.60;8.27;;;;;;;;;;4934068;29;20056;-80
2023/08/26 02:06:40;;;;;;;10.35;7.78;;;;;;;;;;4929205;29;20130;-80
2023/08/26 02:09:08;;;;;;;13.20;8.43;;;;;;;;;;4957256;28;20047;-80
2023/08/26 02:11:36;;;;;;;9.55;7.70;;;;;;;;;;4933599;29;20126;-80
2023/08/26 02:14:03;;;;;;;13.13;7.82;;;;;;;;;;4933517;29;20050;-80
2023/08/26 02:16:31;;;;;;;10.95;7.72;;;;;;;;;;4953419;28;20054;-80
2023/08/26 02:18:58;;;;;;;8.45;6.75;;;;;;;;;;4952842;28;20058;-80
2023/08/26 02:21:26;;;;;;;11.18;7.57;;;;;;;;;;4950220;28;20042;-80
2023/08/26 02:23:54;;;;;;;8.05;7.20;;;;;;;;;;4938395;29;20047;-80
2023/08/26 02:26:21;;;;;;;14.50;7.70;;;;;;;;;;4930024;29;20052;-81
2023/08/26 02:28:49;;;;;;;6.78;6.18;;;;;;;;;;4926146;29;20063;-79
2023/08/26 02:31:16;;;;;;;9.05;7.38;;;;;;;;;;4930073;29;20051;-80
2023/08/26 02:33:44;;;;;;;9.95;7.82;;;;;;;;;;4946560;28;20082;-81
2023/08/26 02:36:12;;;;;;;9.93;7.68;;;;;;;;;;4932848;28;20122;-80
2023/08/26 02:38:40;;;;;;;8.20;6.47;;;;;;;;;;4934850;28;20039;-80
2023/08/26 02:41:08;;;;;;;8.93;6.28;;;;;;;;;;4926545;29;20169;-80
2023/08/26 02:43:35;;;;;;;9.70;7.78;;;;;;;;;;4929063;29;20060;-80
2023/08/26 02:46:02;;;;;;;10.32;7.25;;;;;;;;;;4929120;28;20397;-80
2023/08/26 02:48:30;;;;;;;8.23;7.05;;;;;;;;;;4941305;28;20043;-80
2023/08/26 02:50:58;;;;;;;7.60;6.78;;;;;;;;;;4927625;29;20066;-80
2023/08/26 02:53:26;;;;;;;10.88;7.82;;;;;;;;;;4936858;29;20059;-80
2023/08/26 02:55:54;;;;;;;18.85;8.50;;;;;;;;;;4953503;28;20131;-81
2023/08/26 02:58:22;;;;;;;11.30;8.20;;;;;;;;;;4945134;28;20078;-80
2023/08/26 03:00:50;;;;;;;10.80;8.30;;;;;;;;;;4928333;29;20430;-79
2023/08/26 03:03:18;;;;;;;13.45;8.18;;;;;;;;;;4945993;28;20047;-80
2023/08/26 03:05:46;;;;;;;11.63;8.23;;;;;;;;;;4927602;28;20055;-80
2023/08/26 03:08:13;;;;;;;9.77;8.18;;;;;;;;;;4929569;29;20410;-81
2023/08/26 03:10:41;;;;;;;8.90;8.00;;;;;;;;;;4933544;29;20055;-80
2023/08/26 03:13:08;;;;;;;12.75;7.93;;;;;;;;;;4933793;29;20070;-80
2023/08/26 03:15:38;;;;;;;9.68;6.93;;;;;;;;;;4926575;29;20298;-80
2023/08/26 03:18:06;;;;;;;7.38;6.57;;;;;;;;;;4945326;28;20139;-80
2023/08/26 03:20:33;;;;;;;10.13;8.20;;;;;;;;;;4928780;29;20436;-80
2023/08/26 03:23:01;;;;;;;6.35;5.78;;;;;;;;;;4943629;28;20054;-80
2023/08/26 03:25:29;;;;;;;9.65;8.05;;;;;;;;;;4937642;28;20510;-80
2023/08/26 03:27:56;;;;;;;12.70;8.23;;;;;;;;;;4946083;28;20060;-80
2023/08/26 03:30:25;;;;;;;9.55;8.43;;;;;;;;;;4933356;29;20059;-80
2023/08/26 03:32:52;;;;;;;8.52;7.63;;;;;;;;;;4933941;28;20076;-81
2023/08/26 03:35:20;;;;;;;12.13;8.38;;;;;;;;;;4926697;28;20047;-79
2023/08/26 03:37:47;;;;;;;10.77;8.18;;;;;;;;;;4944916;28;20449;-80
2023/08/26 03:40:15;;;;;;;10.52;8.32;;;;;;;;;;4928969;29;20063;-79
2023/08/26 03:42:42;;;;;;;9.55;6.75;;;;;;;;;;4932823;28;20577;-80
2023/08/26 03:45:12;;;;;;;9.25;6.00;;;;;;;;;;4936113;28;20301;-80
2023/08/26 03:47:39;;;;;;;8.00;6.43;;;;;;;;;;4931983;29;20048;-80
2023/08/26 03:50:07;;;;;;;8.07;7.28;;;;;;;;;;4929076;29;20489;-80
2023/08/26 03:52:35;;;;;;;11.13;7.28;;;;;;;;;;4932288;29;20047;-80
2023/08/26 03:55:04;;;;;;;8.57;7.65;;;;;;;;;;4933160;29;20474;-80
2023/08/26 03:57:32;;;;;;;9.50;7.47;;;;;;;;;;4935961;29;20044;-78
2023/08/26 03:59:59;;;;;;;10.80;7.70;;;;;;;;;;4933632;29;20282;-80
2023/08/26 04:02:26;;;;;;;10.35;7.72;;;;;;;;;;4933776;29;20079;-81
2023/08/26 04:04:54;;;;;;;8.48;7.07;;;;;;;;;;4947957;28;20051;-81
2023/08/26 04:07:21;;;;;;;7.85;7.07;;;;;;;;;;4949222;28;20225;-81
2023/08/26 04:09:49;;;;;;;10.23;7.30;;;;;;;;;;4961646;28;20098;-80
2023/08/26 04:12:16;;;;;;;8.38;6.68;;;;;;;;;;4952810;28;20099;-81
2023/08/26 04:14:46;;;;;;;10.65;7.55;;;;;;;;;;4953152;28;20052;-78
2023/08/26 04:17:13;;;;;;;13.10;8.07;;;;;;;;;;4940228;29;20051;-79
2023/08/26 04:19:40;;;;;;;7.32;6.63;;;;;;;;;;4950601;28;20043;-79
2023/08/26 04:22:08;;;;;;;11.85;7.90;;;;;;;;;;4935764;29;20048;-79
2023/08/26 04:24:36;;;;;;;7.38;6.18;;;;;;;;;;4952702;28;20438;-79
2023/08/26 04:27:04;;;;;;;10.23;8.23;;;;;;;;;;4943245;28;20159;-79
2023/08/26 04:29:32;;;;;;;8.07;6.93;;;;;;;;;;4941908;29;20074;-78
2023/08/26 04:31:59;;;;;;;12.25;7.25;;;;;;;;;;4933447;29;20048;-79
2023/08/26 04:34:27;;;;;;;9.45;7.30;;;;;;;;;;4938065;29;20079;-79
2023/08/26 04:36:54;;;;;;;9.13;7.20;;;;;;;;;;4954839;28;20099;-78
2023/08/26 04:39:22;;;;;;;7.95;6.70;;;;;;;;;;4936885;29;20134;-78
2023/08/26 04:41:49;;;;;;;8.80;7.35;;;;;;;;;;4925860;29;20070;-78
2023/08/26 04:44:17;;;;;;;8.05;6.68;;;;;;;;;;4938993;29;20091;-78
2023/08/26 04:46:45;;;;;;;9.05;7.28;;;;;;;;;;4923890;29;20353;-78
2023/08/26 04:49:12;;;;;;;9.15;6.90;;;;;;;;;;4938684;29;20055;-79
2023/08/26 04:51:40;;;;;;;27.10;7.55;;;;;;;;;;4935863;28;20043;-80
2023/08/26 04:54:09;;;;;;;11.65;7.28;;;;;;;;;;4943043;29;20050;-80
2023/08/26 04:56:37;;;;;;;10.65;6.93;;;;;;;;;;4933294;29;20058;-81
2023/08/26 04:59:05;;;;;;;12.05;7.43;;;;;;;;;;4931530;29;20055;-81
2023/08/26 05:01:33;;;;;;;11.93;7.30;;;;;;;;;;4929905;29;20063;-81
2023/08/26 05:04:00;;;;;;;13.13;7.50;;;;;;;;;;4948105;28;20556;-81
2023/08/26 05:06:29;;;;;;;7.68;6.38;;;;;;;;;;4933752;29;20394;-81
2023/08/26 05:08:56;;;;;;;7.82;6.75;;;;;;;;;;4940569;29;20059;-81
2023/08/26 05:11:24;;;;;;;9.07;6.85;;;;;;;;;;4936247;29;20055;-80
2023/08/26 05:13:51;;;;;;;12.98;7.30;;;;;;;;;;4936052;29;20100;-81
2023/08/26 05:16:18;;;;;;;10.27;7.47;;;;;;;;;;4941372;28;20050;-81
2023/08/26 05:18:46;;;;;;;10.70;6.97;;;;;;;;;;4947825;28;20131;-80
2023/08/26 05:21:14;;;;;;;8.18;7.38;;;;;;;;;;4940261;28;20490;-81
2023/08/26 05:23:41;;;;;;;10.98;8.23;;;;;;;;;;4936476;29;20047;-81
2023/08/26 05:26:09;;;;;;;13.38;8.35;;;;;;;;;;4933227;29;20052;-80
2023/08/26 05:28:37;;;;;;;10.23;8.18;;;;;;;;;;4933388;29;20058;-79
2023/08/26 05:31:05;;;;;;;9.93;7.63;;;;;;;;;;4956726;28;20052;-80
2023/08/26 05:33:33;;;;;;;11.13;7.95;;;;;;;;;;4956130;28;20426;-80
2023/08/26 05:36:01;;;;;;;11.13;7.68;;;;;;;;;;4930486;29;20048;-79
2023/08/26 05:38:29;;;;;;;10.80;8.25;;;;;;;;;;4932490;29;20059;-80
2023/08/26 05:40:58;;;;;;;12.55;8.70;;;;;;;;;;4932158;29;20077;-79
2023/08/26 05:43:29;;;;;;;12.27;7.85;;;;;;;;;;4937871;28;20043;-79
2023/08/26 05:45:57;;;;;;;13.60;8.02;;;;;;;;;;4945526;28;20158;-80
2023/08/26 05:48:25;;;;;;;8.82;7.40;;;;;;;;;;4929282;29;20736;-80
2023/08/26 05:50:52;;;;;;;11.73;7.30;;;;;;;;;;4927568;29;20047;-79
2023/08/26 05:53:20;;;;;;;10.93;7.60;;;;;;;;;;4933268;29;20188;-80
2023/08/26 05:55:47;;;;;;;14.02;8.10;;;;;;;;;;4927488;29;20469;-80
2023/08/26 05:58:15;;;;;;;10.68;8.40;;;;;;;;;;4943279;28;20077;-80
2023/08/26 06:00:44;;;;;;;16.98;8.27;;;;;;;;;;4947220;28;20095;-80
2023/08/26 06:03:11;;;;;;;9.88;7.75;;;;;;;;;;4931031;29;20055;-80
2023/08/26 06:05:39;;;;;;;12.60;8.07;;;;;;;;;;4921226;29;20442;-79
2023/08/26 06:08:06;;;;;;;11.05;7.50;;;;;;;;;;4925874;29;20146;-80
2023/08/26 06:10:35;;;;;;;7.70;6.82;;;;;;;;;;4937930;28;21649;-79
2023/08/26 06:13:04;;;;;;;39.05;8.32;;;;;;;;;;4939846;28;20043;-80
2023/08/26 06:15:32;;;;;;;8.65;7.07;;;;;;;;;;4942429;28;20095;-80
2023/08/26 06:18:00;;;;;;;11.27;7.55;;;;;;;;;;4935887;28;20580;-80
2023/08/26 06:20:29;;;;;;;8.90;7.45;;;;;;;;;;4942087;28;20051;-80
2023/08/26 06:22:56;;;;;;;9.45;6.47;;;;;;;;;;4940906;29;20067;-80
2023/08/26 06:25:25;;;;;;;8.32;7.30;;;;;;;;;;4923096;29;20052;-80
2023/08/26 06:27:52;;;;;;;11.68;7.70;;;;;;;;;;4942047;28;20196;-80
2023/08/26 06:30:21;;;;;;;13.85;7.97;;;;;;;;;;4927513;29;20692;-81
2023/08/26 06:32:49;;;;;;;11.73;7.40;;;;;;;;;;4943022;28;20671;-79
2023/08/26 06:35:18;;;;;;;10.40;8.23;;;;;;;;;;4950884;28;20047;-79
2023/08/26 06:37:45;;;;;;;8.10;6.45;;;;;;;;;;4928926;29;20040;-81
2023/08/26 06:40:14;;;;;;;9.55;7.03;;;;;;;;;;4943174;28;20059;-78
2023/08/26 06:42:42;;;;;;;10.20;5.97;;;;;;;;;;4924268;29;20112;-81
2023/08/26 06:45:15;;;;;;;8.65;6.20;;;;;;;;;;4944169;28;20043;-80
2023/08/26 06:47:44;;;;;;;6.20;5.03;;;;;;;;;;4937334;28;20065;-81
2023/08/26 06:50:11;;;;;;;6.55;4.93;;;;;;;;;;4927151;29;20052;-80
2023/08/26 06:52:39;;;;;;;5.78;4.75;;;;;;;;;;4961385;28;20140;-80
2023/08/26 06:55:08;;;;;;;5.40;4.43;;;;;;;;;;4982230;23;20054;-83
2023/08/26 06:57:36;;;;;;;7.78;4.70;;;;;;;;;;4939372;28;20552;-81
2023/08/26 07:00:05;;;;;;;9.00;4.68;;;;;;;;;;4929737;28;20681;-85
2023/08/26 07:02:36;;;;;;;6.32;4.10;;;;;;;;;;4922434;29;20040;-82
2023/08/26 07:05:04;;;;;;;13.15;3.90;;;;;;;;;;4929438;29;20044;-82
2023/08/26 07:07:32;;;;;;;4.32;3.92;;;;;;;;;;4929335;29;20487;-83
2023/08/26 07:09:59;;;;;;;7.30;4.53;;;;;;;;;;4907395;29;20135;-83
2023/08/26 07:12:27;;;;;;;10.63;4.82;;;;;;;;;;4923946;29;20055;-83
2023/08/26 07:14:54;;;;;;;8.02;5.40;;;;;;;;;;4933393;29;20149;-82
2023/08/26 07:17:22;;;;;;;11.07;5.38;;;;;;;;;;4926154;29;20048;-81
2023/08/26 07:19:53;;;;;;;7.72;5.25;;;;;;;;;;4928288;29;20078;-82
2023/08/26 07:22:20;;;;;;;4.70;3.65;;;;;;;;;;4911821;29;20426;-82
2023/08/26 07:24:56;;;;;;;5.63;5.00;;;;;;;;;;4905819;29;20052;-83
2023/08/26 07:27:24;;;;;;;12.95;6.50;;;;;;;;;;4923801;29;20059;-83
2023/08/26 07:29:51;;;;;;;8.77;5.80;;;;;;;;;;4918787;29;20070;-82
2023/08/26 07:32:19;;;;;;;11.80;5.53;;;;;;;;;;4927379;29;20076;-83
2023/08/26 07:34:46;;;;;;;3.78;3.47;;;;;;;;;;4907489;29;20047;-83
2023/08/26 07:37:14;;;;;;;6.25;3.95;;;;;;;;;;4918537;29;20074;-83
2023/08/26 07:39:41;;;;;;;7.40;5.43;;;;;;;;;;4924832;29;20118;-83
2023/08/26 07:42:08;;;;;;;6.53;4.80;;;;;;;;;;4929656;29;20050;-84
2023/08/26 07:44:36;;;;;;;5.20;4.65;;;;;;;;;;4927341;29;20052;-83
2023/08/26 07:47:03;;;;;;;8.50;5.18;;;;;;;;;;4928393;29;20044;-82
2023/08/26 07:49:30;;;;;;;5.75;4.85;;;;;;;;;;4930123;29;20107;-83
2023/08/26 07:51:58;;;;;;;5.45;4.40;;;;;;;;;;4916072;29;20142;-83
2023/08/26 07:54:25;;;;;;;5.53;4.47;;;;;;;;;;4932081;29;20039;-83
2023/08/26 07:56:53;;;;;;;4.95;4.13;;;;;;;;;;4935311;29;20047;-83
2023/08/26 07:59:20;;;;;;;4.00;3.70;;;;;;;;;;4934177;29;20581;-83
2023/08/26 08:01:47;;;;;;;6.93;3.90;;;;;;;;;;4934976;29;20131;-83
2023/08/26 08:04:15;;;;;;;3.55;3.22;;;;;;;;;;4931825;29;20540;-83
2023/08/26 08:06:42;;;;;;;4.18;3.78;;;;;;;;;;4946503;29;20048;-83
2023/08/26 08:09:09;;;;;;;4.28;3.10;;;;;;;;;;4936792;29;20058;-84
2023/08/26 08:11:37;;;;;;;5.55;3.90;;;;;;;;;;4934097;29;20053;-84
2023/08/26 08:14:04;;;;;;;5.55;3.67;;;;;;;;;;4930031;29;20752;-84
2023/08/26 08:16:31;;;;;;;4.63;3.88;;;;;;;;;;4923398;29;20227;-84
2023/08/26 08:18:59;;;;;;;4.35;3.90;;;;;;;;;;4928179;29;20422;-84
2023/08/26 08:21:26;;;;;;;3.80;3.50;;;;;;;;;;4928845;29;20058;-84
2023/08/26 08:23:54;;;;;;;4.75;4.28;;;;;;;;;;4931971;29;20044;-84
2023/08/26 08:26:21;;;;;;;4.30;3.38;;;;;;;;;;4923332;29;20878;-84
2023/08/26 08:28:48;;;;;;;4.72;3.30;;;;;;;;;;4918976;29;20127;-84
2023/08/26 08:31:16;;;;;;;5.20;3.55;;;;;;;;;;4925995;29;20048;-84
2023/08/26 08:33:43;;;;;;;3.17;2.88;;;;;;;;;;4924003;29;20078;-84
2023/08/26 08:36:10;;;;;;;3.58;3.15;;;;;;;;;;4924156;29;20055;-83
2023/08/26 08:38:38;;;;;;;3.30;2.90;;;;;;;;;;4926866;29;20047;-84
2023/08/26 08:41:05;;;;;;;2.60;2.40;;;;;;;;;;4921564;29;20052;-84
2023/08/26 08:43:36;;;;;;;3.20;2.45;;;;;;;;;;4925698;29;20051;-83
2023/08/26 08:46:04;;;;;;;3.03;2.72;;;;;;;;;;4926865;29;20059;-84
2023/08/26 08:48:33;;;;;;;3.05;2.75;;;;;;;;;;4942019;29;20097;-84
2023/08/26 08:51:01;;;;;;;2.75;2.55;;;;;;;;;;4937593;29;20048;-85
2023/08/26 08:53:32;;;;;;;2.72;2.53;;;;;;;;;;4955688;29;20107;-85
2023/08/26 08:56:03;;;;;;;2.80;2.60;;;;;;;;;;4950330;29;20027;-85
2023/08/26 08:58:30;;;;;;;;;;;;;;;;;;4948031;29;20050;-84
2023/08/26 09:00:59;;;;;;;1.80;1.70;;;;;;;;;;4953242;29;20049;-85
2023/08/26 09:03:26;;;;;;;2.78;2.10;;;;;;;;;;4935787;29;20048;-85
2023/08/26 09:05:54;;;;;;;2.42;2.22;;;;;;;;;;4917314;29;20051;-84
2023/08/26 09:08:23;;;;;;;2.60;2.40;;;;;;;;;;4928344;29;20075;-84
2023/08/26 09:10:51;;;;;;;2.15;2.05;;;;;;;;;;4941519;29;20048;-84
2023/08/26 09:13:19;;;;;;;3.25;2.60;;;;;;;;;;4939653;29;20046;-85
2023/08/26 09:15:46;;;;;;;2.47;2.30;;;;;;;;;;4924950;29;20048;-84
2023/08/26 09:18:15;;;;;;;2.47;2.28;;;;;;;;;;4914519;29;20593;-84
2023/08/26 09:20:46;;;;;;;2.67;2.42;;;;;;;;;;4914119;29;20069;-84
2023/08/26 09:23:14;;;;;;;2.30;2.10;;;;;;;;;;4916533;29;20048;-84
2023/08/26 09:25:57;;;;;;;2.80;2.20;;;;;;;;;;4924771;29;20054;-84
2023/08/26 09:28:26;;;;;;;3.20;2.50;;;;;;;;;;4915929;29;20048;-84
2023/08/26 09:31:03;;;;;;;2.60;2.40;;;;;;;;;;4915474;29;20062;-84
2023/08/26 09:33:31;;;;;;;2.92;2.60;;;;;;;;;;4916673;29;20045;-83
2023/08/26 09:35:58;;;;;;;2.47;1.88;;;;;;;;;;4924362;29;20482;-84
2023/08/26 09:38:31;;;;;;;3.95;1.98;;;;;;;;;;4924280;29;20127;-84
2023/08/26 09:41:00;;;;;;;2.50;2.30;;;;;;;;;;4917225;29;20052;-83
2023/08/26 09:43:28;;;;;;;2.58;2.38;;;;;;;;;;4927532;29;20055;-84
2023/08/26 09:45:56;;;;;;;5.68;2.55;;;;;;;;;;4926158;29;20127;-84
2023/08/26 09:48:24;;;;;;;2.47;2.28;;;;;;;;;;4945090;28;20051;-83
2023/08/26 09:50:52;;;;;;;3.60;2.30;;;;;;;;;;4938078;29;20058;-84
2023/08/26 09:53:32;;;;;;;2.55;2.03;;;;;;;;;;4935132;29;20801;-84
2023/08/26 09:56:00;;;;;;;4.28;1.95;;;;;;;;;;4922088;29;20107;-83
2023/08/26 09:58:27;;;;;;;2.20;1.98;;;;;;;;;;4918111;29;20566;-84
2023/08/26 10:00:57;;;;;;;4.78;1.70;;;;;;;;;;4920607;29;20487;-84
2023/08/26 10:03:25;;;;;;;2.08;1.90;;;;;;;;;;4913755;29;20052;-84
2023/08/26 10:05:55;;;;;;;4.25;1.98;;;;;;;;;;4914811;29;20202;-84
2023/08/26 10:08:27;;;;;;;2.80;1.70;;;;;;;;;;4915466;29;20052;-85
2023/08/26 10:10:55;;;;;;;1.65;1.55;;;;;;;;;;4919378;29;20056;-84
2023/08/26 10:13:27;;;;;;;1.92;1.73;;;;;;;;;;4938811;29;20166;-84
2023/08/26 10:15:59;;;;;;;2.30;1.67;;;;;;;;;;4915270;29;20044;-83
2023/08/26 10:18:44;;;;;;;2.03;1.60;;;;;;;;;;4916266;29;20051;-85
2023/08/26 10:21:13;;;;;;;1.52;1.40;;;;;;;;;;4921477;29;20036;-83
2023/08/26 10:23:41;;;;;;;2.63;1.77;;;;;;;;;;4917676;29;20064;-85
2023/08/26 10:26:08;;;;;;;2.20;1.48;;;;;;;;;;4918770;29;20052;-85
2023/08/26 10:28:36;;;;;;;2.47;1.50;;;;;;;;;;4918432;29;20088;-85
2023/08/26 10:31:07;;;;;;;1.70;1.65;;;;;;;;;;4913871;29;20036;-85
2023/08/26 10:33:53;;;;;;;1.58;1.35;;;;;;;;;;4914742;29;20055;-84
2023/08/26 10:36:21;;;;;;;1.42;1.40;;;;;;;;;;4919796;29;20075;-84
2023/08/26 10:38:58;;;;;;;1.65;1.45;;;;;;;;;;4916816;29;20068;-85
2023/08/26 10:41:26;;;;;;;1.83;1.73;;;;;;;;;;4919128;29;20470;-84
2023/08/26 10:43:54;;;;;;;2.40;1.70;;;;;;;;;;4914176;29;20056;-84
2023/08/26 10:46:35;;;;;;;2.33;1.60;;;;;;;;;;4913819;29;20079;-85
2023/08/26 10:49:05;;;;;;;2.30;1.50;;;;;;;;;;4924979;29;20130;-85
2023/08/26 10:51:36;;;;;;;1.50;1.40;;;;;;;;;;4925174;29;20158;-85
2023/08/26 10:54:04;;;;;;;1.63;1.52;;;;;;;;;;4912583;29;20072;-83
2023/08/26 10:56:39;;;;;;;1.52;1.38;;;;;;;;;;4914469;29;20111;-84
2023/08/26 10:59:07;;;;;;;2.47;1.73;;;;;;;;;;4920558;29;20051;-85
2023/08/26 11:01:35;;;;;;;1.75;1.50;;;;;;;;;;4920416;29;20052;-84
2023/08/26 11:04:06;;;;;;;2.13;1.92;;;;;;;;;;4930392;29;20075;-86
2023/08/26 11:06:38;;;;;;;2.40;1.50;;;;;;;;;;4922341;29;20134;-84
2023/08/26 11:09:05;;;;;;;1.45;1.35;;;;;;;;;;4924113;29;20570;-84
2023/08/26 11:11:33;;;;;;;2.35;1.50;;;;;;;;;;4922338;29;20179;-84
2023/08/26 11:14:00;;;;;;;1.60;1.50;;;;;;;;;;4924933;29;20044;-83
2023/08/26 11:16:28;;;;;;;1.27;1.27;;;;;;;;;;4923034;29;20048;-85
2023/08/26 11:18:57;;;;;;;1.30;1.30;;;;;;;;;;4931986;29;20047;-86
2023/08/26 11:21:25;;;;;;;2.63;1.50;;;;;;;;;;4937718;29;20711;-85
2023/08/26 11:23:54;;;;;;;1.40;1.30;;;;;;;;;;4915396;29;20159;-85
2023/08/26 11:26:23;;;;;;;1.50;1.00;;;;;;;;;;4913243;29;20360;-85
2023/08/26 11:28:51;;;;;;;1.40;1.30;;;;;;;;;;4912667;29;20052;-85
2023/08/26 11:31:18;;;;;;;3.28;1.40;;;;;;;;;;4921633;29;20048;-85
2023/08/26 11:33:48;;;;;;;1.70;1.40;;;;;;;;;;4921871;29;20534;-84
2023/08/26 11:36:19;;;;;;;1.60;1.20;;;;;;;;;;4920576;29;20051;-85
2023/08/26 11:38:47;;;;;;;1.83;1.40;;;;;;;;;;4913946;29;20036;-85
2023/08/26 11:41:14;;;;;;;1.50;1.40;;;;;;;;;;4917737;29;20047;-85
2023/08/26 11:43:41;;;;;;;1.38;1.27;;;;;;;;;;4917318;29;20054;-85
2023/08/26 11:46:10;;;;;;;1.20;1.15;;;;;;;;;;4931943;29;20032;-84
2023/08/26 11:48:38;;;;;;;2.55;1.60;;;;;;;;;;4936833;29;20103;-83
2023/08/26 11:51:05;;;;;;;1.55;1.45;;;;;;;;;;4935008;29;20059;-85
2023/08/26 11:53:35;;;;;;;1.75;1.65;;;;;;;;;;4917629;29;20049;-85
2023/08/26 11:56:03;;;;;;;1.63;1.52;;;;;;;;;;4919994;29;20071;-85
2023/08/26 11:58:31;;;;;;;3.17;1.40;;;;;;;;;;4920833;29;20213;-85
2023/08/26 12:00:59;;;;;;;2.25;1.70;;;;;;;;;;4926678;29;20577;-84
2023/08/26 12:03:32;;;;;;;2.95;1.60;;;;;;;;;;4933532;29;20065;-83
2023/08/26 12:06:00;;;;;;;2.38;1.60;;;;;;;;;;4915645;29;20058;-85
2023/08/26 12:08:28;;;;;;;1.60;1.50;;;;;;;;;;4932699;29;20084;-85
2023/08/26 12:10:58;;;;;;;2.20;2.00;;;;;;;;;;4932245;29;20079;-85
2023/08/26 12:13:38;;;;;;;1.88;1.77;;;;;;;;;;4915568;29;20044;-84
2023/08/26 12:16:07;;;;;;;1.83;1.73;;;;;;;;;;4931886;29;20111;-84
2023/08/26 12:18:34;;;;;;;1.70;1.60;;;;;;;;;;4935202;29;20107;-85
2023/08/26 12:21:02;;;;;;;3.80;1.88;;;;;;;;;;4935667;29;20118;-85
2023/08/26 12:23:29;;;;;;;1.70;1.60;;;;;;;;;;4918633;29;20138;-85
2023/08/26 12:25:57;;;;;;;2.05;1.90;;;;;;;;;;4932947;29;20134;-85
2023/08/26 12:28:25;;;;;;;2.00;1.60;;;;;;;;;;4915618;29;20087;-85
2023/08/26 12:30:53;;;;;;;1.90;1.80;;;;;;;;;;4916095;29;20047;-85
2023/08/26 12:33:21;;;;;;;2.25;1.70;;;;;;;;;;4928702;29;20040;-84
2023/08/26 12:35:54;;;;;;;2.75;1.80;;;;;;;;;;4919183;29;20044;-84
2023/08/26 12:38:23;;;;;;;1.50;1.42;;;;;;;;;;4918314;29;20103;-84
2023/08/26 12:40:50;;;;;;;1.50;1.40;;;;;;;;;;4934972;29;20055;-84
2023/08/26 12:43:18;;;;;;;2.70;1.80;;;;;;;;;;4935072;29;20055;-85
2023/08/26 12:45:48;;;;;;;2.10;1.85;;;;;;;;;;4935428;29;20135;-85
2023/08/26 12:48:16;;;;;;;2.50;1.83;;;;;;;;;;4935046;29;20074;-84
2023/08/26 12:51:00;;;;;;;2.25;1.60;;;;;;;;;;4904241;29;20060;-84
2023/08/26 12:53:27;;;;;;;1.88;1.65;;;;;;;;;;4935412;29;20130;-84
2023/08/26 12:55:56;;;;;;;2.15;1.65;;;;;;;;;;4935142;29;20146;-85
2023/08/26 12:58:27;;;;;;;1.55;1.45;;;;;;;;;;4938598;29;20051;-85
2023/08/26 13:00:54;;;;;;;2.05;1.50;;;;;;;;;;4920692;29;20135;-85
2023/08/26 13:03:22;;;;;;;2.55;1.73;;;;;;;;;;4911244;29;20103;-85
2023/08/26 13:05:51;;;;;;;2.83;1.50;;;;;;;;;;4935713;29;20118;-85
2023/08/26 13:08:19;;;;;;;1.90;1.60;;;;;;;;;;4923095;29;20052;-84
2023/08/26 13:10:46;;;;;;;4.13;1.85;;;;;;;;;;4925649;29;20075;-84
2023/08/26 13:13:14;;;;;;;3.00;1.70;;;;;;;;;;4938093;29;20163;-86
2023/08/26 13:15:42;;;;;;;1.80;1.70;;;;;;;;;;4936946;29;20059;-85
2023/08/26 13:18:10;;;;;;;1.48;1.45;;;;;;;;;;4935698;29;20055;-85
2023/08/26 13:20:40;;;;;;;2.05;1.95;;;;;;;;;;4929405;29;20056;-85
2023/08/26 13:23:09;;;;;;;2.00;1.90;;;;;;;;;;4941008;29;20122;-85
2023/08/26 13:25:40;;;;;;;1.80;1.70;;;;;;;;;;4918309;29;20056;-84
2023/08/26 13:28:07;;;;;;;2.03;1.80;;;;;;;;;;4947349;28;20072;-83
2023/08/26 13:30:35;;;;;;;2.35;2.08;;;;;;;;;;4959806;28;20273;-84
2023/08/26 13:33:03;;;;;;;1.98;1.88;;;;;;;;;;4970076;28;20100;-82
2023/08/26 13:35:31;;;;;;;1.60;1.50;;;;;;;;;;4967617;28;20099;-84
2023/08/26 13:37:58;;;;;;;2.35;1.70;;;;;;;;;;4951412;28;20031;-83
2023/08/26 13:40:26;;;;;;;1.50;1.40;;;;;;;;;;4957626;28;20058;-82
2023/08/26 13:42:55;;;;;;;1.80;1.65;;;;;;;;;;4946708;28;20051;-83
2023/08/26 13:45:22;;;;;;;1.95;1.65;;;;;;;;;;4948842;29;20047;-84
2023/08/26 13:47:50;;;;;;;2.88;1.88;;;;;;;;;;4953832;29;20042;-84
2023/08/26 13:50:17;;;;;;;1.85;1.75;;;;;;;;;;4939370;29;20048;-83
2023/08/26 13:52:45;;;;;;;2.58;1.83;;;;;;;;;;4947609;29;20080;-84
2023/08/26 13:55:15;;;;;;;2.03;1.80;;;;;;;;;;4933724;29;20603;-84
2023/08/26 13:57:43;;;;;;;2.03;1.92;;;;;;;;;;4933297;29;20051;-85
2023/08/26 14:00:11;;;;;;;2.38;2.15;;;;;;;;;;4931465;29;20119;-85
2023/08/26 14:02:38;;;;;;;1.90;1.80;;;;;;;;;;4927950;29;20058;-85
2023/08/26 14:05:07;;;;;;;2.13;1.90;;;;;;;;;;4916280;29;20060;-85
2023/08/26 14:07:34;;;;;;;1.73;1.63;;;;;;;;;;4932597;29;20629;-84
2023/08/26 14:10:02;;;;;;;2.13;1.75;;;;;;;;;;4919551;29;20062;-84
2023/08/26 14:12:29;;;;;;;2.70;2.00;;;;;;;;;;4945973;29;20516;-84
2023/08/26 14:14:56;;;;;;;1.90;1.75;;;;;;;;;;4921093;29;20574;-84
2023/08/26 14:17:24;;;;;;;2.67;1.80;;;;;;;;;;4933368;29;20043;-84
2023/08/26 14:19:51;;;;;;;1.60;1.50;;;;;;;;;;4916764;29;20051;-84
2023/08/26 14:22:19;;;;;;;1.58;1.48;;;;;;;;;;4933813;29;20044;-85
2023/08/26 14:24:48;;;;;;;1.90;1.73;;;;;;;;;;4938198;29;20040;-84
2023/08/26 14:27:16;;;;;;;1.88;1.77;;;;;;;;;;4928505;29;20906;-84
2023/08/26 14:29:43;;;;;;;1.70;1.60;;;;;;;;;;4923829;29;20040;-84
2023/08/26 14:32:11;;;;;;;1.80;1.70;;;;;;;;;;4924116;29;20047;-84
2023/08/26 14:34:38;;;;;;;1.77;1.63;;;;;;;;;;4917496;29;20052;-85
2023/08/26 14:37:06;;;;;;;2.10;1.92;;;;;;;;;;4916052;29;20558;-84
2023/08/26 14:39:39;;;;;;;1.73;1.63;;;;;;;;;;4932691;29;20078;-85
2023/08/26 14:42:06;;;;;;;1.70;1.60;;;;;;;;;;4932837;29;20063;-84
2023/08/26 14:44:34;;;;;;;1.85;1.75;;;;;;;;;;4931671;29;20050;-84
2023/08/26 14:47:01;;;;;;;2.83;2.10;;;;;;;;;;4932334;29;20063;-85